Time;durP1;ratioP1;P1;durP2;ratioP2;P2;SDS_P1;SDS_P2;PMS_P1;PMS_P2;Temp;Humidity;BMP_temperature;BMP_pressure;BME280_temperature;BME280_humidity;BME280_pressure;Samples;Min_cycle;Max_cycle;Signal;HPM_P1;HPM_P2
2023/12/03 00:00:53;;;;;;;;;;;3.70;56.10;;;1.91;60.82;101242.59;12251218;19;19926;-86
2023/12/03 00:04:55;;;;;;;;;;;3.90;56.10;;;1.86;60.88;101234.94;12255318;19;19918;-86
2023/12/03 00:08:58;;;;;;;;;;;3.90;56.10;;;1.44;60.78;101164.19;12253120;19;19919;-86
2023/12/03 00:12:59;;;;;;;;;;;3.70;56.00;;;1.65;60.76;101205.13;12254987;19;19918;-86
2023/12/03 00:17:01;;;;;;;;;;;3.90;56.10;;;1.61;60.88;101195.72;12254112;19;19918;-86
2023/12/03 00:21:03;;;;;;;;;;;4.00;56.20;;;1.95;60.72;101255.44;12251558;19;19914;-86
2023/12/03 00:25:05;;;;;;;;;;;3.70;56.00;;;1.55;60.91;101193.22;12253975;19;20242;-87
2023/12/03 00:29:06;;;;;;;;;;;3.70;56.00;;;1.92;60.92;101259.78;12252621;19;19919;-86
2023/12/03 00:33:08;;;;;;;;;;;4.00;56.20;;;1.80;61.00;101226.44;12251285;19;19978;-86
2023/12/03 00:37:09;;;;;;;;;;;3.80;56.10;;;1.91;60.98;101247.75;12253242;19;19915;-87
2023/12/03 00:41:11;;;;;;;;;;;3.90;56.10;;;1.93;60.91;101256.31;12251383;19;19923;-87
2023/12/03 00:45:13;;;;;;;;;;;4.10;56.20;;;1.73;60.81;101221.34;12254498;19;19928;-87
2023/12/03 00:49:14;;;;;;;;;;;3.80;56.10;;;2.05;60.92;101265.63;12252925;19;19936;-87
2023/12/03 00:53:16;;;;;;;;;;;3.80;56.10;;;2.03;60.97;101268.25;12250695;19;19919;-87
2023/12/03 00:57:17;;;;;;;;;;;3.80;56.00;;;2.08;60.91;101281.94;12250507;19;19925;-87
2023/12/03 01:01:22;;;;;;;;;;;4.10;56.20;;;2.05;60.84;101278.50;12246239;19;19951;-87
2023/12/03 01:05:23;;;;;;;;;;;3.90;56.10;;;2.08;60.96;101275.91;12250832;19;19915;-87
2023/12/03 01:09:26;;;;;;;;;;;3.90;56.10;;;2.13;60.90;101289.56;12248237;19;19948;-87
2023/12/03 01:13:28;;;;;;;;;;;3.90;56.00;;;2.13;60.95;101292.16;12252231;19;19923;-88
2023/12/03 01:17:30;;;;;;;;;;;3.90;56.00;;;2.17;60.78;101314.44;12248048;19;19919;-88
2023/12/03 01:21:31;;;;;;;;;;;4.10;56.10;;;2.13;61.05;101318.78;12247724;19;19918;-87
2023/12/03 01:25:33;;;;;;;;;;;3.90;56.00;;;1.88;60.92;101281.28;12250420;19;19915;-87
2023/12/03 01:29:34;;;;;;;;;;;3.90;56.30;;;2.11;61.05;101320.53;12248893;19;19917;-87
2023/12/03 01:33:36;;;;;;;;;;;4.10;56.10;;;2.02;60.84;101305.16;12249451;19;19911;-88
2023/12/03 01:37:38;;;;;;;;;;;3.90;56.00;;;2.06;60.87;101321.44;12250735;19;19975;-87
2023/12/03 01:41:39;;;;;;;;;;;3.90;56.00;;;2.01;60.76;101325.78;12248184;19;19932;-88
2023/12/03 01:45:41;;;;;;;;;;;3.90;56.00;;;2.07;60.97;101336.03;12250816;19;19970;-87
2023/12/03 01:49:43;;;;;;;;;;;3.90;55.90;;;1.70;60.97;101290.91;12248854;19;19928;-87
2023/12/03 01:53:46;;;;;;;;;;;3.80;55.90;;;2.07;60.78;101356.63;12248531;19;19922;-87
2023/12/03 01:57:47;;;;;;;;;;;3.80;55.90;;;2.02;60.93;101358.38;12249911;19;19919;-87
2023/12/03 02:01:49;;;;;;;;;;;3.80;55.80;;;2.01;60.79;101354.97;12244902;19;19910;-87
2023/12/03 02:06:08;;;;;;;;;;;3.80;55.90;;;2.01;60.92;101365.28;12246551;19;19923;-87
2023/12/03 02:10:10;;;;;;;;;;;3.80;55.80;;;1.95;60.72;101362.75;12248342;19;19907;-87
2023/12/03 02:14:12;;;;;;;;;;;3.70;55.80;;;2.01;60.93;101373.00;12246948;19;19922;-87
2023/12/03 02:18:14;;;;;;;;;;;3.70;55.80;;;1.69;60.89;101324.38;12245464;19;20362;-87
2023/12/03 02:22:15;;;;;;;;;;;4.00;55.90;;;1.83;60.78;101360.28;12245975;19;19952;-87
2023/12/03 02:26:17;;;;;;;;;;;4.00;55.90;;;1.91;60.85;101371.38;12250120;19;19970;-87
2023/12/03 02:30:19;;;;;;;;;;;3.70;55.70;;;2.00;60.64;101402.22;12245685;19;20374;-87
2023/12/03 02:34:20;;;;;;;;;;;3.70;55.70;;;1.86;60.64;101388.56;12250104;19;19927;-87
2023/12/03 02:38:22;;;;;;;;;;;3.90;55.70;;;1.77;60.77;101381.78;12248493;19;20253;-87
2023/12/03 02:42:24;;;;;;;;;;;3.70;55.60;;;1.92;60.88;101406.56;12243108;19;20340;-87
2023/12/03 02:46:25;;;;;;;;;;;3.60;55.60;;;1.91;60.87;101410.00;12249429;19;19918;-87
2023/12/03 02:50:27;;;;;;;;;;;3.60;55.70;;;1.89;60.66;101409.16;12246320;19;19970;-87
2023/12/03 02:54:29;;;;;;;;;;;3.60;55.60;;;1.89;60.69;101404.00;12248139;19;19923;-87
2023/12/03 02:58:30;;;;;;;;;;;3.60;55.60;;;1.65;60.72;101364.75;12247057;19;19946;-87
2023/12/03 03:02:32;;;;;;;;;;;3.60;55.60;;;1.79;60.79;101402.38;12244158;19;19914;-87
2023/12/03 03:06:34;;;;;;;;;;;3.90;55.70;;;1.90;60.85;101426.34;12245795;19;19937;-87
2023/12/03 03:10:35;;;;;;;;;;;3.70;55.60;;;1.90;60.74;101421.19;12243650;19;19989;-87
2023/12/03 03:14:37;;;;;;;;;;;3.60;55.60;;;1.76;60.72;101403.28;12247082;19;20307;-87
2023/12/03 03:18:39;;;;;;;;;;;3.60;55.60;;;1.82;60.68;101412.66;12256964;19;19934;-87
2023/12/03 03:22:41;;;;;;;;;;;3.60;55.60;;;1.82;60.65;101410.94;12252772;19;20249;-87
2023/12/03 03:26:42;;;;;;;;;;;3.60;55.60;;;1.83;60.58;101409.22;12257472;19;19946;-87
2023/12/03 03:30:44;;;;;;;;;;;3.60;55.60;;;1.76;60.64;101417.00;12253815;19;19925;-87
2023/12/03 03:34:45;;;;;;;;;;;3.60;55.60;;;1.86;60.80;101428.06;12256451;19;20344;-87
2023/12/03 03:38:47;;;;;;;;;;;3.60;55.60;;;1.83;60.83;101424.66;12255554;19;19962;-87
2023/12/03 03:42:49;;;;;;;;;;;3.70;55.60;;;1.77;60.71;101426.41;12249761;19;19915;-87
2023/12/03 03:46:51;;;;;;;;;;;3.60;55.50;;;1.85;60.86;101439.22;12252735;19;19996;-87
2023/12/03 03:50:52;;;;;;;;;;;3.60;55.60;;;1.88;60.60;101458.97;12252744;19;19925;-87
2023/12/03 03:54:54;;;;;;;;;;;3.60;55.50;;;1.88;60.81;101457.22;12255230;19;19915;-87
2023/12/03 03:58:55;;;;;;;;;;;3.80;55.60;;;1.87;60.76;101449.53;12254350;19;19925;-87
2023/12/03 04:02:57;;;;;;;;;;;3.70;55.60;;;1.76;60.77;101439.31;12254801;19;19919;-87
2023/12/03 04:06:59;;;;;;;;;;;3.80;55.60;;;1.84;60.88;101467.59;12254312;19;19911;-87
2023/12/03 04:11:04;;;;;;;;;;;3.50;55.50;;;1.81;60.72;101446.97;12251840;19;19944;-87
2023/12/03 04:15:06;;;;;;;;;;;3.50;55.50;;;1.59;60.81;101413.66;12253665;19;19974;-87
2023/12/03 04:19:08;;;;;;;;;;;3.50;55.50;;;1.78;60.79;101450.44;12254232;19;19972;-87
2023/12/03 04:23:10;;;;;;;;;;;3.70;55.60;;;1.51;60.55;101397.44;12252947;19;19911;-87
2023/12/03 04:27:11;;;;;;;;;;;3.50;55.50;;;1.77;60.75;101441.00;12253266;19;20317;-87
2023/12/03 04:31:21;;;;;;;;;;;3.50;55.50;;;1.73;60.92;101429.88;12248705;19;19930;-87
2023/12/03 04:35:23;;;;;;;;;;;3.60;55.60;;;1.77;60.68;101439.28;12251888;19;19933;-87
2023/12/03 04:39:25;;;;;;;;;;;3.80;55.70;;;1.86;60.75;101458.09;12252174;19;19907;-87
2023/12/03 04:43:26;;;;;;;;;;;3.60;55.60;;;1.51;60.76;101397.44;12253107;19;19926;-87
2023/12/03 04:47:28;;;;;;;;;;;3.70;55.60;;;1.81;60.66;101462.44;12249911;19;19923;-87
2023/12/03 04:51:30;;;;;;;;;;;3.70;55.60;;;1.76;60.76;101463.34;12249517;19;19934;-87
2023/12/03 04:55:31;;;;;;;;;;;3.90;55.70;;;1.88;60.93;101474.41;12254379;19;19907;-87
2023/12/03 04:59:33;;;;;;;;;;;3.50;55.60;;;1.84;60.61;101465.84;12250049;19;19914;-87
2023/12/03 05:03:34;;;;;;;;;;;3.60;55.60;;;1.70;60.61;101442.78;12253566;19;19948;-87
2023/12/03 05:07:36;;;;;;;;;;;3.60;55.60;;;1.75;60.88;101453.88;12252677;19;19911;-87
2023/12/03 05:11:40;;;;;;;;;;;3.60;55.70;;;1.87;60.89;101475.28;12247393;19;19953;-87
2023/12/03 05:15:41;;;;;;;;;;;3.60;55.60;;;1.39;60.72;101398.38;12249159;19;20353;-87
2023/12/03 05:19:43;;;;;;;;;;;3.60;55.60;;;1.53;60.63;101429.16;12249852;19;19903;-87
2023/12/03 05:23:45;;;;;;;;;;;3.60;55.70;;;1.76;60.65;101465.91;12249349;19;19918;-87
2023/12/03 05:27:47;;;;;;;;;;;3.90;55.80;;;1.61;60.90;101437.69;12249851;19;19915;-87
2023/12/03 05:31:48;;;;;;;;;;;3.60;55.70;;;1.82;60.88;101479.59;12245141;19;19922;-87
2023/12/03 05:35:50;;;;;;;;;;;3.60;55.70;;;1.62;60.79;101444.56;12249553;19;19918;-87
2023/12/03 05:39:52;;;;;;;;;;;4.00;55.80;;;1.84;60.78;101480.47;12246566;19;19923;-87
2023/12/03 05:43:53;;;;;;;;;;;3.70;55.70;;;1.90;60.70;101488.97;12246135;19;19935;-87
2023/12/03 05:47:55;;;;;;;;;;;3.90;55.80;;;1.98;60.66;101510.38;12241107;19;20313;-87
2023/12/03 05:51:56;;;;;;;;;;;3.70;55.70;;;1.90;60.66;101501.00;12242124;19;19915;-87
2023/12/03 05:55:58;;;;;;;;;;;3.70;55.70;;;1.85;60.83;101488.16;12245897;19;19932;-87
2023/12/03 05:59:59;;;;;;;;;;;3.70;55.70;;;1.98;60.77;101517.25;12244410;19;19918;-87
2023/12/03 06:04:06;;;;;;;;;;;3.90;55.80;;;2.00;60.77;101525.84;12245363;19;19930;-87
2023/12/03 06:08:07;;;;;;;;;;;3.70;55.80;;;1.70;60.84;101473.69;12246469;19;19919;-87
2023/12/03 06:12:09;;;;;;;;;;;3.70;55.80;;;1.88;60.68;101503.59;12239264;19;19929;-87
2023/12/03 06:16:10;;;;;;;;;;;3.70;55.80;;;1.71;60.78;101485.69;12243554;19;19922;-87
2023/12/03 06:20:12;;;;;;;;;;;3.70;55.80;;;1.74;60.72;101484.81;12242127;19;19923;-87
2023/12/03 06:24:13;;;;;;;;;;;3.70;55.90;;;2.03;60.98;101530.97;12243533;19;19931;-87
2023/12/03 06:28:15;;;;;;;;;;;3.70;55.80;;;1.91;60.86;101505.28;12237168;19;19925;-87
2023/12/03 06:32:16;;;;;;;;;;;3.90;56.00;;;1.89;60.87;101504.44;12243839;19;19919;-87
2023/12/03 06:36:18;;;;;;;;;;;3.80;55.90;;;2.03;60.72;101541.28;12246725;19;19919;-87
2023/12/03 06:40:20;;;;;;;;;;;3.80;55.90;;;2.06;60.92;101550.69;12243583;19;19986;-87
2023/12/03 06:44:21;;;;;;;;;;;3.80;55.90;;;2.03;60.89;101554.16;12248117;19;19947;-87
2023/12/03 06:48:23;;;;;;;;;;;3.80;55.90;;;1.93;60.83;101542.19;12245577;19;19911;-88
2023/12/03 06:52:25;;;;;;;;;;;3.70;55.90;;;1.94;60.70;101556.75;12252400;19;19918;-88
2023/12/03 06:56:26;;;;;;;;;;;3.80;55.90;;;1.97;60.96;101567.03;12259043;19;19926;-88
2023/12/03 07:00:28;;;;;;;;;;;3.70;55.90;;;1.99;60.74;101583.34;12256600;19;19951;-90
2023/12/03 07:04:29;;;;;;;;;;;4.00;56.10;;;1.97;60.95;101575.66;12255873;19;19925;-87
2023/12/03 07:08:31;;;;;;;;;;;3.70;56.00;;;1.88;60.92;101565.38;12258072;19;19915;-88
2023/12/03 07:12:33;;;;;;;;;;;3.70;56.00;;;1.92;60.86;101571.41;12256924;19;19919;-88
2023/12/03 07:16:35;;;;;;;;;;;3.70;56.00;;;1.93;60.76;101586.81;12258623;19;19918;-88
2023/12/03 07:20:36;;;;;;;;;;;3.70;56.00;;;1.89;60.90;101586.84;12254545;19;19926;-90
2023/12/03 07:24:39;;;;;;;;;;;3.70;56.00;;;1.98;61.08;101599.69;12257164;19;19915;-87
2023/12/03 07:28:44;;;;;;;;;;;4.00;56.10;;;1.70;60.75;101548.34;12258873;19;19948;-88
2023/12/03 07:32:45;;;;;;;;;;;3.70;56.00;;;2.03;61.00;101610.81;12258919;19;19922;-88
2023/12/03 07:36:47;;;;;;;;;;;3.80;56.00;;;1.94;60.86;101592.81;12259050;19;19915;-88
2023/12/03 07:40:49;;;;;;;;;;;3.70;56.00;;;1.90;61.00;101593.72;12254929;19;19927;-89
2023/12/03 07:44:50;;;;;;;;;;;3.90;56.10;;;2.03;60.92;101618.56;12254155;19;19919;-87
2023/12/03 07:48:52;;;;;;;;;;;3.90;56.10;;;2.02;60.91;101621.13;12256983;19;19962;-89
2023/12/03 07:52:53;;;;;;;;;;;3.70;56.00;;;2.02;60.88;101616.81;12255833;19;19974;-89
2023/12/03 07:56:55;;;;;;;;;;;3.70;56.00;;;1.71;60.75;101575.78;12255698;19;19951;-89
2023/12/03 08:00:59;;;;;;;;;;;3.80;56.00;;;1.94;60.90;101624.56;12248477;19;19943;-88
2023/12/03 08:05:01;;;;;;;;;;;3.70;55.90;;;1.93;60.78;101616.88;12255016;19;19918;-88
2023/12/03 08:09:02;;;;;;;;;;;3.70;55.90;;;1.63;60.88;101574.97;12250524;19;20681;-89
2023/12/03 08:13:04;;;;;;;;;;;3.70;56.00;;;1.98;61.00;101639.16;12256593;19;19933;-89
2023/12/03 08:17:11;;;;;;;;;;;3.70;56.00;;;1.67;60.86;101592.09;12255556;19;19919;-89
2023/12/03 08:21:13;;;;;;;;;;;4.00;56.10;;;1.67;60.85;101586.09;12251409;19;19922;-89
2023/12/03 08:25:14;;;;;;;;;;;3.70;55.90;;;1.93;60.88;101638.34;12252479;19;19915;-89
2023/12/03 08:29:16;;;;;;;;;;;3.70;55.90;;;2.02;61.04;101655.47;12254319;19;19978;-89
2023/12/03 08:33:17;;;;;;;;;;;3.70;56.00;;;2.02;61.12;101652.88;12253558;19;19919;-88
2023/12/03 08:37:19;;;;;;;;;;;3.50;55.90;;;1.92;60.78;101635.78;12257667;19;20263;-89
2023/12/03 08:41:20;;;;;;;;;;;3.70;55.90;;;1.87;60.93;101622.06;12249126;19;19922;-88
2023/12/03 08:45:22;;;;;;;;;;;3.80;56.00;;;2.07;61.07;101655.44;12253172;19;19926;-90
2023/12/03 08:49:23;;;;;;;;;;;4.00;56.10;;;2.04;60.87;101656.31;12250376;19;19926;-91
2023/12/03 08:53:25;;;;;;;;;;;3.70;55.80;;;1.98;60.95;101646.91;12255491;19;19952;-91
2023/12/03 08:57:26;;;;;;;;;;;3.70;55.80;;;1.71;60.98;101609.25;12254646;19;19915;-89
2023/12/03 09:01:29;;;;;;;;;;;3.90;55.90;;;1.91;60.88;101639.19;12249093;19;19921;-91
2023/12/03 09:05:30;;;;;;;;;;;3.70;55.80;;;1.73;61.09;101610.09;12252147;19;19915;-91
2023/12/03 09:09:32;;;;;;;;;;;3.70;55.90;;;1.67;61.06;101601.53;12253315;19;19915;-88
2023/12/03 09:13:34;;;;;;;;;;;3.80;55.80;;;2.01;60.87;101664.06;12254437;19;19948;-87
2023/12/03 09:17:36;;;;;;;;;;;3.80;55.80;;;2.05;60.86;101675.19;12255100;19;19919;-87
2023/12/03 09:21:37;;;;;;;;;;;3.70;55.80;;;1.99;60.84;101660.63;12249728;19;19915;-88
2023/12/03 09:25:40;;;;;;;;;;;4.00;55.90;;;1.87;60.99;101637.53;12253750;19;19914;-87
2023/12/03 09:29:41;;;;;;;;;;;3.80;55.90;;;2.11;60.98;101673.47;12253799;19;19919;-85
2023/12/03 09:33:44;;;;;;;;;;;3.80;55.90;;;2.15;60.90;101675.16;12256267;19;19943;-89
2023/12/03 09:37:46;;;;;;;;;;;3.90;56.00;;;2.09;61.12;101670.03;12254030;19;20392;-89
2023/12/03 09:41:49;;;;;;;;;;;3.90;56.00;;;2.20;61.16;101683.72;12246667;19;20333;-88
2023/12/03 09:45:55;;;;;;;;;;;4.20;56.10;;;2.17;60.96;101678.56;12251766;19;19918;-90
2023/12/03 09:49:57;;;;;;;;;;;4.00;56.00;;;2.16;60.98;101689.75;12247623;19;19995;-91
2023/12/03 09:53:59;;;;;;;;;;;4.00;56.30;;;2.15;60.78;101690.59;12249546;19;19930;-88
2023/12/03 09:58:01;;;;;;;;;;;4.00;55.80;;;2.17;60.92;101690.59;12251951;19;19927;-87
2023/12/03 10:02:04;;;;;;;;;;;4.00;55.80;;;2.18;60.91;101700.03;12246657;19;20361;-88
2023/12/03 10:06:05;;;;;;;;;;;4.00;55.70;;;1.85;61.12;101659.84;12251056;19;20365;-87
2023/12/03 10:10:10;;;;;;;;;;;4.00;55.70;;;1.92;61.05;101671.84;12247520;19;19915;-88
2023/12/03 10:14:13;;;;;;;;;;;3.90;55.70;;;2.09;60.78;101718.13;12249403;19;19930;-88
2023/12/03 10:18:15;;;;;;;;;;;3.90;55.70;;;2.04;61.01;101702.69;12246147;19;19927;-87
2023/12/03 10:22:29;;;;;;;;;;;3.80;55.60;;;2.09;60.90;101713.81;12247615;19;19914;-87
2023/12/03 10:26:31;;;;;;;;;;;3.90;55.70;;;2.09;60.86;101705.25;12248205;19;19918;-86
2023/12/03 10:30:33;;;;;;;;;;;3.90;55.70;;;1.96;60.94;101683.81;12249395;19;19911;-87
2023/12/03 10:34:35;;;;;;;;;;;3.80;55.70;;;2.08;61.16;101704.41;12251342;19;19970;-86
2023/12/03 10:38:37;;;;;;;;;;;3.80;55.70;;;2.09;61.09;101707.81;12249325;19;19919;-87
2023/12/03 10:42:39;;;;;;;;;;;3.80;55.70;;;2.02;61.09;101696.66;12247868;19;20329;-87
2023/12/03 10:46:44;;;;;;;;;;;3.80;55.70;;;1.87;60.94;101676.16;12249036;19;19919;-86
2023/12/03 10:50:47;;;;;;;;;;;3.80;55.70;;;2.01;60.99;101712.16;12245751;19;20371;-87
2023/12/03 10:54:48;;;;;;;;;;;4.10;55.80;;;2.18;61.01;101733.53;12249404;19;19927;-89
2023/12/03 10:58:50;;;;;;;;;;;3.80;55.70;;;2.01;60.87;101707.84;12250192;19;19994;-86
2023/12/03 11:03:01;;;;;;;;;;;3.90;55.80;;;2.12;61.15;101724.13;12245368;19;19919;-85
2023/12/03 11:07:09;;;;;;;;;;;3.90;55.70;;;1.88;61.11;101685.56;12248205;19;19928;-85
2023/12/03 11:11:12;;;;;;;;;;;3.90;55.70;;;2.02;61.04;101708.69;12246370;19;19914;-87
2023/12/03 11:15:14;;;;;;;;;;;3.90;55.70;;;2.07;60.93;101710.38;12244690;19;20350;-87
2023/12/03 11:19:17;;;;;;;;;;;3.90;55.70;;;2.11;61.26;101722.41;12244544;19;19923;-87
2023/12/03 11:23:53;;;;;;;;;;;3.90;55.70;;;2.27;61.09;101753.25;12246141;19;19915;-86
2023/12/03 11:27:54;;;;;;;;;;;3.90;55.70;;;2.12;61.02;101726.69;12246330;19;20348;-86
2023/12/03 11:31:58;;;;;;;;;;;4.10;55.70;;;2.12;60.90;101737.00;12245035;19;19922;-86
2023/12/03 11:36:02;;;;;;;;;;;4.10;55.70;;;1.94;60.94;101713.88;12247623;19;19918;-86
2023/12/03 11:40:13;;;;;;;;;;;4.30;55.80;;;2.21;61.00;101773.06;12256031;19;19922;-86
2023/12/03 11:44:18;;;;;;;;;;;3.90;55.50;;;2.21;60.93;101767.91;12258324;19;20271;-88
2023/12/03 11:48:21;;;;;;;;;;;3.90;55.50;;;2.04;60.95;101743.91;12257172;19;19958;-90
2023/12/03 11:52:22;;;;;;;;;;;3.90;55.60;;;2.16;60.79;101772.22;12248785;19;19933;-86
2023/12/03 11:56:24;;;;;;;;;;;4.10;55.60;;;2.19;61.02;101779.06;12256793;19;19927;-86
2023/12/03 12:00:25;;;;;;;;;;;3.90;55.60;;;2.16;61.15;101767.06;12253563;19;19914;-86
2023/12/03 12:04:27;;;;;;;;;;;4.20;55.80;;;2.26;60.99;101780.75;12258122;19;19923;-86
2023/12/03 12:08:28;;;;;;;;;;;4.00;55.70;;;2.08;60.96;101747.31;12258153;19;19939;-86
2023/12/03 12:12:29;;;;;;;;;;;4.00;55.70;;;2.04;61.00;101741.31;12255767;19;19915;-86
2023/12/03 12:16:32;;;;;;;;;;;4.00;55.70;;;2.22;61.01;101768.75;12257072;19;19938;-85
2023/12/03 12:20:33;;;;;;;;;;;4.00;55.70;;;2.33;61.09;101794.47;12252421;19;19915;-88
2023/12/03 12:24:35;;;;;;;;;;;4.00;55.70;;;1.86;61.17;101707.91;12254522;19;19907;-87
2023/12/03 12:28:36;;;;;;;;;;;4.00;55.70;;;2.30;61.04;101786.75;12253855;19;19950;-86
2023/12/03 12:32:38;;;;;;;;;;;4.00;55.60;;;2.11;60.99;101750.75;12254154;19;19921;-86
2023/12/03 12:36:43;;;;;;;;;;;4.10;55.70;;;2.31;61.20;101788.47;12255676;19;19939;-86
2023/12/03 12:40:52;;;;;;;;;;;4.10;55.70;;;2.42;60.97;101786.69;12252032;19;19960;-86
2023/12/03 12:44:54;;;;;;;;;;;4.10;55.70;;;2.11;61.05;101740.44;12254871;19;19914;-87
2023/12/03 12:49:14;;;;;;;;;;;4.10;55.70;;;2.30;60.90;101779.03;12252188;19;19911;-86
2023/12/03 12:53:16;;;;;;;;;;;4.20;55.70;;;2.39;61.05;101786.72;12254174;19;19911;-87
2023/12/03 12:57:18;;;;;;;;;;;4.10;55.70;;;2.36;60.82;101781.56;12249700;19;19922;-87
2023/12/03 13:01:20;;;;;;;;;;;4.10;55.70;;;2.12;61.16;101736.16;12250720;19;19948;-87
2023/12/03 13:05:25;;;;;;;;;;;4.10;55.70;;;2.43;60.81;101791.84;12252440;19;20379;-87
2023/12/03 13:09:27;;;;;;;;;;;4.10;55.60;;;2.29;60.96;101769.56;12251045;19;19915;-87
2023/12/03 13:13:29;;;;;;;;;;;4.20;55.60;;;2.33;60.90;101784.16;12254169;19;20238;-87
2023/12/03 13:17:31;;;;;;;;;;;4.10;55.50;;;2.30;60.85;101772.16;12253886;19;19926;-87
2023/12/03 13:21:32;;;;;;;;;;;4.10;55.50;;;2.38;61.15;101777.28;12249700;19;19923;-88
2023/12/03 13:25:33;;;;;;;;;;;4.40;55.70;;;2.36;60.92;101773.84;12252027;19;19922;-88
2023/12/03 13:29:35;;;;;;;;;;;4.30;55.70;;;2.49;61.13;101788.38;12252974;19;19930;-87
2023/12/03 13:33:37;;;;;;;;;;;4.20;55.60;;;2.44;60.95;101779.81;12253316;19;19915;-88
2023/12/03 13:37:38;;;;;;;;;;;4.20;55.70;;;2.48;60.94;101796.97;12250300;19;19915;-88
2023/12/03 13:41:40;;;;;;;;;;;4.20;55.60;;;2.48;60.95;101790.97;12249978;19;19918;-88
2023/12/03 13:45:42;;;;;;;;;;;4.20;55.60;;;2.22;60.84;101756.72;12248178;19;20531;-88
2023/12/03 13:49:43;;;;;;;;;;;4.40;55.70;;;2.20;60.90;101753.28;12250588;19;19944;-88
2023/12/03 13:53:45;;;;;;;;;;;4.20;55.60;;;2.40;61.03;101798.72;12250217;19;19954;-89
2023/12/03 13:57:47;;;;;;;;;;;4.20;55.50;;;2.43;60.79;101817.63;12250504;19;19919;-89
2023/12/03 14:01:48;;;;;;;;;;;4.40;55.60;;;2.42;60.75;101822.78;12238460;19;20269;-88
2023/12/03 14:05:50;;;;;;;;;;;4.10;55.50;;;2.38;60.68;101824.53;12250641;19;19967;-88
2023/12/03 14:09:51;;;;;;;;;;;4.30;55.50;;;2.22;60.78;101800.53;12246028;19;19923;-88
2023/12/03 14:13:53;;;;;;;;;;;4.10;55.40;;;2.39;60.98;101822.78;12249816;19;19922;-89
2023/12/03 14:17:55;;;;;;;;;;;4.20;55.50;;;2.14;60.88;101786.81;12248932;19;20310;-88
2023/12/03 14:21:56;;;;;;;;;;;4.40;55.60;;;2.35;61.01;101821.06;12246220;19;20001;-89
2023/12/03 14:25:57;;;;;;;;;;;4.30;55.60;;;2.38;60.83;101824.53;12248586;19;20321;-89
2023/12/03 14:29:59;;;;;;;;;;;4.10;55.50;;;2.08;60.87;101781.69;12248106;19;19956;-89
2023/12/03 14:34:00;;;;;;;;;;;4.10;55.50;;;2.41;60.86;101841.69;12248621;19;19910;-89
2023/12/03 14:38:01;;;;;;;;;;;4.10;55.50;;;2.34;60.66;101838.28;12247862;19;20237;-89
2023/12/03 14:42:03;;;;;;;;;;;4.10;55.50;;;2.42;60.97;101851.13;12243186;19;19930;-89
2023/12/03 14:46:05;;;;;;;;;;;4.10;55.50;;;2.31;60.76;101829.69;12247696;19;19918;-89
2023/12/03 14:50:08;;;;;;;;;;;4.10;55.50;;;2.08;60.76;101802.28;12243807;19;20017;-89
2023/12/03 14:54:09;;;;;;;;;;;4.10;55.50;;;2.28;60.75;101842.59;12248332;19;19919;-89
2023/12/03 14:58:11;;;;;;;;;;;4.20;55.60;;;2.27;60.86;101848.59;12245861;19;19926;-89
2023/12/03 15:02:13;;;;;;;;;;;4.10;55.50;;;2.39;60.87;101869.19;12242343;19;19911;-89
2023/12/03 15:06:15;;;;;;;;;;;4.10;55.50;;;2.30;60.82;101846.03;12248649;19;19955;-89
2023/12/03 15:10:17;;;;;;;;;;;4.10;55.50;;;2.40;60.57;101883.78;12243812;19;19936;-89
2023/12/03 15:14:18;;;;;;;;;;;4.10;55.50;;;2.20;60.82;101853.78;12254466;19;19919;-89
2023/12/03 15:18:20;;;;;;;;;;;4.10;55.40;;;2.11;60.90;101842.66;12258958;19;19943;-89
2023/12/03 15:22:22;;;;;;;;;;;4.00;55.40;;;2.09;60.75;101846.94;12253802;19;20302;-89
2023/12/03 15:26:23;;;;;;;;;;;4.00;55.30;;;2.24;60.89;101880.38;12257652;19;19923;-89
2023/12/03 15:30:25;;;;;;;;;;;4.00;55.40;;;1.99;60.83;101853.81;12254127;19;19918;-89
2023/12/03 15:34:26;;;;;;;;;;;4.10;55.40;;;1.98;60.63;101854.69;12259537;19;19914;-89
2023/12/03 15:38:28;;;;;;;;;;;3.90;55.30;;;2.24;60.66;101876.97;12256580;19;19930;-89
2023/12/03 15:42:30;;;;;;;;;;;4.10;55.40;;;2.10;60.75;101867.53;12254184;19;19907;-89
2023/12/03 15:46:31;;;;;;;;;;;4.20;55.50;;;2.22;60.79;101890.72;12256438;19;19928;-89
2023/12/03 15:50:33;;;;;;;;;;;3.90;55.40;;;2.16;60.59;101882.13;12254207;19;19923;-89
2023/12/03 15:54:34;;;;;;;;;;;3.80;55.30;;;2.05;60.70;101874.41;12254267;19;19915;-89
2023/12/03 15:58:36;;;;;;;;;;;3.90;55.30;;;2.07;60.59;101885.56;12255813;19;19924;-89
2023/12/03 16:02:38;;;;;;;;;;;3.80;55.30;;;2.11;60.82;101887.31;12244869;19;19982;-89
2023/12/03 16:06:40;;;;;;;;;;;3.80;55.30;;;2.11;60.79;101889.88;12251299;19;19925;-89
2023/12/03 16:10:41;;;;;;;;;;;4.00;55.40;;;1.77;60.65;101852.97;12250528;19;19923;-89
2023/12/03 16:14:42;;;;;;;;;;;4.00;55.30;;;2.00;60.80;101896.75;12251146;19;19919;-89
2023/12/03 16:18:44;;;;;;;;;;;4.00;55.40;;;1.67;60.53;101851.25;12252541;19;19919;-89
2023/12/03 16:22:49;;;;;;;;;;;3.70;55.30;;;1.98;60.60;101901.91;12248938;19;19986;-89
2023/12/03 16:26:57;;;;;;;;;;;3.70;55.30;;;2.00;60.92;101901.91;12250571;19;19907;-89
2023/12/03 16:30:59;;;;;;;;;;;4.00;55.40;;;2.05;60.69;101912.19;12245325;19;19947;-88
2023/12/03 16:35:01;;;;;;;;;;;3.70;55.30;;;2.03;60.74;101908.78;12251434;19;19926;-88
2023/12/03 16:39:03;;;;;;;;;;;3.70;55.40;;;2.08;60.67;101920.81;12250080;19;19910;-89
2023/12/03 16:43:05;;;;;;;;;;;3.80;55.30;;;1.99;60.40;101913.91;12246325;19;20272;-89
2023/12/03 16:47:07;;;;;;;;;;;4.00;55.40;;;2.01;60.48;101910.50;12251939;19;19917;-88
2023/12/03 16:51:08;;;;;;;;;;;3.70;55.30;;;2.00;60.81;101896.75;12247224;19;20018;-89
2023/12/03 16:55:10;;;;;;;;;;;3.70;55.30;;;1.69;60.62;101852.97;12252682;19;19975;-87
2023/12/03 16:59:11;;;;;;;;;;;3.70;55.30;;;1.61;60.54;101841.81;12250956;19;19919;-89
2023/12/03 17:03:13;;;;;;;;;;;3.70;55.30;;;2.01;60.43;101913.94;12249670;19;19911;-89
2023/12/03 17:07:16;;;;;;;;;;;3.70;55.30;;;1.90;60.52;101901.06;12252517;19;19914;-89
2023/12/03 17:11:18;;;;;;;;;;;3.80;55.30;;;1.96;60.74;101921.66;12246468;19;19943;-90
2023/12/03 17:15:19;;;;;;;;;;;3.70;55.30;;;1.68;60.46;101874.44;12248073;19;19919;-90
2023/12/03 17:19:21;;;;;;;;;;;3.60;55.30;;;1.98;60.68;101926.81;12247450;19;19919;-91
2023/12/03 17:23:22;;;;;;;;;;;3.60;55.30;;;1.93;60.75;101913.94;12245167;19;19923;-90
2023/12/03 17:27:23;;;;;;;;;;;3.70;55.30;;;1.89;60.63;101913.91;12248411;19;19919;-90
2023/12/03 17:31:25;;;;;;;;;;;3.80;55.30;;;1.93;60.56;101921.66;12243050;19;19982;-90
2023/12/03 17:35:29;;;;;;;;;;;3.60;55.30;;;1.74;60.69;101892.47;12238921;19;19952;-90
2023/12/03 17:39:31;;;;;;;;;;;3.60;55.30;;;1.97;60.66;101922.50;12238581;19;19922;-91
2023/12/03 17:43:32;;;;;;;;;;;3.60;55.30;;;1.99;60.62;101926.78;12244896;19;20338;-90
2023/12/03 17:47:33;;;;;;;;;;;3.70;55.40;;;1.95;60.64;101927.66;12247203;19;19978;-90
2023/12/03 17:51:35;;;;;;;;;;;3.70;55.40;;;1.89;60.66;101913.91;12244368;19;19915;-90
2023/12/03 17:55:37;;;;;;;;;;;3.70;55.40;;;1.73;60.71;101883.03;12245355;19;19915;-90
2023/12/03 17:59:39;;;;;;;;;;;4.10;55.50;;;1.94;60.54;101909.63;12242226;19;19922;-90
2023/12/03 18:03:41;;;;;;;;;;;4.00;55.50;;;2.02;60.63;101931.09;12244428;19;20513;-90
2023/12/03 18:07:42;;;;;;;;;;;3.90;55.40;;;1.99;60.67;101920.78;12232395;19;19923;-91
2023/12/03 18:11:44;;;;;;;;;;;3.80;55.40;;;2.07;60.68;101925.94;12239347;19;20279;-90
2023/12/03 18:15:45;;;;;;;;;;;3.80;55.30;;;1.97;60.54;101918.22;12241550;19;19949;-91
2023/12/03 18:19:47;;;;;;;;;;;3.80;55.20;;;1.95;60.69;101919.94;12238606;19;20369;-89
2023/12/03 18:23:48;;;;;;;;;;;3.90;55.30;;;1.99;60.66;101924.22;12242204;19;19915;-89
2023/12/03 18:27:49;;;;;;;;;;;3.80;55.20;;;1.92;60.64;101924.25;12242821;19;19947;-90
2023/12/03 18:31:51;;;;;;;;;;;3.80;55.20;;;1.70;60.52;101888.19;12238763;19;19918;-89